»·PEaware :: N137AL L88-KSBP

N137AL :: L88-KSBP

FLIGHT INFORMATION

Flight Status: Arrived
Operator: Privately registered:
United States
More flights under this callsign
Pilot: Aaron K. (32509)
Aircraft: CESSNA 172 SKYHAWK
(C172)
More flights by this aircraft type
Origin: L88 New Cuyama
United States
Destination: KSBP San Luis Co Regl
United States
More flights between these airports :: More routes between these airports
Route: L52
File this flight plan on PilotEdge
Remarks:
Altitude:
(Current/Filed)
6,000ft
Speed:
(Current/Filed)
110kts
Departed: 09-Jan-21 10:42 AM
Arrived: 09-Jan-21 11:12 AM
Distance/Time
Traveled:
35nm/0:30
Distance/Time
To Go:
Arrived

Flight Plot

Page will automatically refresh every two minutes.

Flight plan parsing failed; only flown route is shown


Map Options




Map Legend


Flown Route
Filed Route
Departure Airport
Arrival Airport
Navaid (VOR, NDB)
Fix

Horizontal Profiles

Position Reports

Time Latitude Longitude Heading Altitude Ground
Speed
09-Jan-21 10:26 35.237155 -120.637014 125 216ft 0kts
09-Jan-21 10:27 35.237155 -120.637014 125 216ft 0kts
09-Jan-21 10:35 34.942856 -119.690285 204 2156ft 0kts
09-Jan-21 10:36 34.942856 -119.690285 204 2156ft 0kts
09-Jan-21 10:37 35.237155 -120.637015 125 216ft 0kts
09-Jan-21 10:38 35.237155 -120.637015 125 216ft 0kts
09-Jan-21 10:39 34.942722 -119.690722 207 2156ft 1kts
09-Jan-21 10:40 34.942640 -119.691049 290 2155ft 0kts
09-Jan-21 10:41 34.942640 -119.691049 290 2155ft 0kts
09-Jan-21 10:42 34.940693 -119.687242 115 2193ft 67kts
09-Jan-21 10:43 34.942929 -119.669759 2 2933ft 88kts
09-Jan-21 10:44 34.951810 -119.692745 299 3834ft 83kts
09-Jan-21 10:45 34.966384 -119.718640 304 4391ft 91kts
09-Jan-21 10:46 34.979538 -119.745836 293 4698ft 100kts
09-Jan-21 10:47 34.992866 -119.776230 308 5327ft 103kts
09-Jan-21 10:48 35.003744 -119.808025 278 5903ft 105kts
09-Jan-21 10:48 35.026398 -119.951952 280 6907ft 107kts
09-Jan-21 10:49 35.101007 -120.219716 295 8097ft 104kts
09-Jan-21 10:50 35.170611 -120.393246 296 7392ft 123kts
09-Jan-21 10:52 35.190190 -120.434915 295 5004ft 135kts
09-Jan-21 10:52 35.201317 -120.460798 298 4016ft 107kts
09-Jan-21 10:53 35.207974 -120.492458 266 3022ft 95kts
09-Jan-21 10:54 35.207963 -120.525559 272 2178ft 97kts
09-Jan-21 10:55 35.204842 -120.557892 253 1376ft 96kts
09-Jan-21 10:56 35.208341 -120.586860 300 822ft 74kts
09-Jan-21 10:57 35.219081 -120.608553 302 596ft 71kts
09-Jan-21 10:58 35.230074 -120.627989 306 440ft 70kts
09-Jan-21 10:59 35.241617 -120.651497 291 1098ft 88kts
09-Jan-21 11:00 35.251175 -120.675225 300 1233ft 73kts
09-Jan-21 11:01 35.236898 -120.687702 203 830ft 83kts
09-Jan-21 11:02 35.224048 -120.682684 83 618ft 73kts
09-Jan-21 11:03 35.219443 -120.662135 121 533ft 53kts
09-Jan-21 11:04 35.212083 -120.646948 92 452ft 50kts
09-Jan-21 11:05 35.213058 -120.638440 84 503ft 65kts
09-Jan-21 11:06 35.209348 -120.616616 112 751ft 74kts
09-Jan-21 11:07 35.206851 -120.601774 103 889ft 77kts
09-Jan-21 11:08 35.205811 -120.579350 351 1039ft 81kts
09-Jan-21 11:09 35.214921 -120.600579 296 1050ft 65kts
09-Jan-21 11:10 35.224542 -120.618845 302 773ft 69kts
09-Jan-21 11:11 35.234320 -120.635652 303 216ft 35kts
09-Jan-21 11:12 35.235303 -120.636131 79 216ft 0kts
09-Jan-21 11:13 35.235303 -120.636131 79 216ft 0kts
09-Jan-21 11:14 35.235303 -120.636131 79 216ft 0kts
09-Jan-21 11:15 35.235303 -120.636131 79 216ft 0kts
09-Jan-21 11:16 34.942853 -119.690285 204 2156ft 0kts
09-Jan-21 11:17 34.942853 -119.690285 204 2156ft 0kts
09-Jan-21 11:18 34.942800 -119.690389 239 2156ft 5kts
09-Jan-21 11:23 34.938935 -119.683102 298 2189ft 69kts
09-Jan-21 11:24 34.977600 -119.783679 300 4766ft 96kts
09-Jan-21 11:25 35.018525 -119.913547 277 6977ft 103kts
09-Jan-21 11:26 35.140457 -120.352090 293 2768ft 140kts

Navigation Log

Ident Type
Flight plan parsing failed, navigation log unavailable